createdAt,value
2023-11-09T00:00:48.433Z,86.00
2023-11-09T00:03:16.912Z,86.10
2023-11-09T00:05:44.490Z,85.80
2023-11-09T00:08:11.854Z,85.60
2023-11-09T00:10:39.109Z,85.70
2023-11-09T00:13:06.219Z,86.00
2023-11-09T00:15:33.897Z,85.90
2023-11-09T00:18:01.079Z,86.00
2023-11-09T00:20:28.320Z,86.00
2023-11-09T00:22:55.437Z,85.80
2023-11-09T00:25:22.969Z,85.60
2023-11-09T00:27:50.103Z,86.00
2023-11-09T00:30:17.335Z,86.60
2023-11-09T00:32:44.529Z,86.80
2023-11-09T00:35:13.155Z,87.00
2023-11-09T00:37:40.351Z,86.90
2023-11-09T00:40:12.095Z,86.90
2023-11-09T00:42:39.889Z,87.20
2023-11-09T00:45:08.146Z,87.40
2023-11-09T00:47:35.771Z,87.40
2023-11-09T00:50:03.057Z,87.20
2023-11-09T00:52:31.549Z,87.20
2023-11-09T00:54:59.572Z,87.20
2023-11-09T00:57:27.366Z,87.20
2023-11-09T00:59:54.464Z,87.20
2023-11-09T01:02:21.617Z,87.10
2023-11-09T01:04:49.134Z,86.80
2023-11-09T01:07:16.358Z,86.50
2023-11-09T01:09:44.238Z,85.90
2023-11-09T01:12:11.362Z,85.40
2023-11-09T01:14:38.856Z,85.20
2023-11-09T01:17:07.887Z,85.20
2023-11-09T01:19:35.920Z,85.30
2023-11-09T01:22:03.302Z,85.50
2023-11-09T01:24:30.455Z,85.50
2023-11-09T01:26:57.591Z,85.40
2023-11-09T01:29:24.700Z,85.30
2023-11-09T01:31:51.914Z,85.10
2023-11-09T01:34:19.528Z,85.00
2023-11-09T01:36:46.635Z,84.90
2023-11-09T01:39:14.115Z,84.90
2023-11-09T01:41:43.372Z,84.80
2023-11-09T01:44:10.825Z,84.70
2023-11-09T01:46:41.501Z,84.50
2023-11-09T01:49:11.255Z,84.50
2023-11-09T01:51:39.726Z,84.30
2023-11-09T01:54:07.583Z,84.10
2023-11-09T01:56:36.419Z,83.90
2023-11-09T01:59:07.249Z,84.20
2023-11-09T02:01:37.143Z,83.70
2023-11-09T02:04:04.771Z,83.40
2023-11-09T02:06:33.142Z,83.30
2023-11-09T02:09:00.260Z,83.20
2023-11-09T02:11:27.462Z,83.00
2023-11-09T02:13:54.765Z,82.80
2023-11-09T02:16:22.261Z,82.60
2023-11-09T02:18:49.563Z,82.50
2023-11-09T02:21:19.192Z,82.40
2023-11-09T02:23:49.599Z,82.30
2023-11-09T02:26:18.002Z,82.30
2023-11-09T02:28:50.567Z,82.70
2023-11-09T02:31:19.212Z,82.80
2023-11-09T02:33:46.396Z,82.90
2023-11-09T02:36:14.135Z,83.00
2023-11-09T02:38:41.313Z,83.10
2023-11-09T02:41:09.430Z,83.30
2023-11-09T02:43:41.732Z,83.40
2023-11-09T02:46:12.407Z,83.50
2023-11-09T02:48:40.109Z,84.20
2023-11-09T02:51:10.696Z,83.00
2023-11-09T02:53:38.435Z,82.50
2023-11-09T02:56:08.906Z,82.30
2023-11-09T02:58:36.064Z,82.10
2023-11-09T03:01:03.383Z,81.90
2023-11-09T03:03:30.454Z,81.90
2023-11-09T03:05:58.317Z,82.00
2023-11-09T03:08:27.730Z,81.90
2023-11-09T03:10:55.090Z,82.00
2023-11-09T03:13:23.405Z,81.60
2023-11-09T03:15:51.020Z,81.30
2023-11-09T03:18:20.460Z,81.00
2023-11-09T03:20:47.912Z,80.90
2023-11-09T03:23:14.973Z,80.70
2023-11-09T03:25:42.722Z,80.50
2023-11-09T03:28:09.812Z,80.60
2023-11-09T03:30:37.230Z,80.80
2023-11-09T03:33:04.474Z,80.90
2023-11-09T03:35:32.016Z,80.80
2023-11-09T03:37:59.214Z,80.60
2023-11-09T03:40:26.392Z,80.40
2023-11-09T03:42:53.870Z,80.50
2023-11-09T03:45:20.943Z,81.10
2023-11-09T03:47:48.076Z,81.50
2023-11-09T03:50:15.802Z,81.60
2023-11-09T03:52:42.947Z,81.70
2023-11-09T03:55:12.725Z,81.80
2023-11-09T03:57:40.524Z,81.80
2023-11-09T04:00:12.788Z,81.70
2023-11-09T04:02:42.228Z,81.60
2023-11-09T04:05:10.772Z,81.70
2023-11-09T04:07:45.395Z,81.50
2023-11-09T04:10:15.087Z,81.50
2023-11-09T04:12:43.001Z,81.70
2023-11-09T04:15:10.751Z,81.70
2023-11-09T04:17:38.030Z,81.90
2023-11-09T04:20:08.094Z,81.90
2023-11-09T04:22:35.921Z,81.60
2023-11-09T04:25:03.304Z,81.60
2023-11-09T04:27:30.687Z,81.80
2023-11-09T04:29:59.137Z,82.00
2023-11-09T04:32:27.075Z,82.10
2023-11-09T04:34:58.073Z,82.20
2023-11-09T04:37:27.083Z,82.30
2023-11-09T04:39:59.202Z,82.20
2023-11-09T04:42:30.319Z,82.00
2023-11-09T04:45:01.469Z,82.30
2023-11-09T04:47:30.839Z,82.30
2023-11-09T04:50:02.929Z,82.40
2023-11-09T04:52:31.959Z,82.30
2023-11-09T04:55:11.258Z,82.30
2023-11-09T04:57:58.290Z,81.90
2023-11-09T05:01:04.346Z,81.80
2023-11-09T05:03:49.962Z,81.70
2023-11-09T05:06:35.311Z,81.40
2023-11-09T05:09:03.567Z,81.20
2023-11-09T05:11:30.647Z,81.70
2023-11-09T05:13:58.242Z,80.90
2023-11-09T05:16:26.445Z,80.60
2023-11-09T05:18:53.542Z,81.20
2023-11-09T05:21:21.985Z,82.20
2023-11-09T05:23:49.328Z,81.50
2023-11-09T05:26:16.668Z,81.40
2023-11-09T05:28:43.980Z,81.30
2023-11-09T05:31:12.006Z,81.10
2023-11-09T05:33:39.376Z,81.00
2023-11-09T05:36:08.842Z,80.90
2023-11-09T05:38:36.733Z,80.70
2023-11-09T05:41:05.304Z,80.50
2023-11-09T05:43:32.513Z,80.50
2023-11-09T05:45:59.995Z,80.80
2023-11-09T05:48:27.153Z,80.90
2023-11-09T05:50:55.960Z,79.50
2023-11-09T05:53:23.092Z,80.10
2023-11-09T05:55:50.935Z,80.30
2023-11-09T05:58:18.134Z,80.40
2023-11-09T06:00:45.398Z,80.40
2023-11-09T06:03:12.975Z,81.10
2023-11-09T06:05:40.485Z,81.00
2023-11-09T06:08:09.307Z,80.60
2023-11-09T06:10:36.490Z,80.70
2023-11-09T06:13:04.535Z,80.80
2023-11-09T06:15:32.640Z,81.00
2023-11-09T06:17:59.792Z,81.20
2023-11-09T06:20:27.373Z,81.50
2023-11-09T06:22:54.533Z,82.00
2023-11-09T06:25:21.794Z,82.30
2023-11-09T06:27:48.981Z,82.80
2023-11-09T06:30:16.073Z,83.00
2023-11-09T06:32:43.546Z,82.80
2023-11-09T06:35:15.144Z,83.00
2023-11-09T06:37:44.155Z,83.20
2023-11-09T06:40:12.799Z,83.40
2023-11-09T06:42:40.629Z,83.90
2023-11-09T06:45:08.422Z,84.20
2023-11-09T06:47:41.038Z,84.30
2023-11-09T06:50:12.820Z,84.40
2023-11-09T06:52:41.407Z,84.30
2023-11-09T06:55:12.154Z,84.30
2023-11-09T06:57:40.837Z,84.20
2023-11-09T07:00:11.309Z,84.70
2023-11-09T07:02:39.393Z,83.90
2023-11-09T07:05:07.971Z,83.70
2023-11-09T07:07:39.111Z,83.60
2023-11-09T07:10:08.445Z,83.40
2023-11-09T07:12:36.683Z,83.20
2023-11-09T07:15:04.756Z,83.00
2023-11-09T07:17:31.869Z,82.90
2023-11-09T07:20:00.272Z,82.70
2023-11-09T07:22:27.762Z,82.50
2023-11-09T07:25:07.788Z,82.20
2023-11-09T07:27:38.391Z,82.00
2023-11-09T07:30:06.138Z,81.70
2023-11-09T07:32:33.355Z,81.40
2023-11-09T07:35:00.536Z,81.40
2023-11-09T07:37:28.547Z,81.60
2023-11-09T07:39:55.853Z,81.60
2023-11-09T07:42:24.088Z,81.50
2023-11-09T07:44:52.148Z,81.80
2023-11-09T07:47:19.331Z,81.80
2023-11-09T07:49:48.087Z,81.80
2023-11-09T07:52:15.798Z,82.00
2023-11-09T07:54:44.796Z,82.00
2023-11-09T07:57:12.490Z,82.30
2023-11-09T07:59:39.843Z,82.30
2023-11-09T08:02:08.192Z,82.00
2023-11-09T08:04:35.392Z,81.50
2023-11-09T08:07:02.657Z,81.40
2023-11-09T08:09:29.841Z,81.80
2023-11-09T08:11:57.076Z,81.20
2023-11-09T08:14:24.178Z,77.40
2023-11-09T08:16:51.259Z,72.40
2023-11-09T08:19:18.436Z,72.20
2023-11-09T08:21:45.558Z,72.60
2023-11-09T08:24:12.625Z,73.10
2023-11-09T08:26:40.645Z,73.00
2023-11-09T08:29:08.431Z,74.10
2023-11-09T08:31:35.663Z,73.70
2023-11-09T08:34:02.854Z,73.40
2023-11-09T08:36:30.898Z,72.50
2023-11-09T08:38:58.279Z,72.80
2023-11-09T08:41:27.674Z,72.90
2023-11-09T08:43:54.932Z,73.00
2023-11-09T08:46:22.674Z,73.70
2023-11-09T08:48:49.939Z,74.00
2023-11-09T08:51:17.135Z,72.50
2023-11-09T08:53:44.711Z,70.50
2023-11-09T08:56:12.041Z,65.70
2023-11-09T08:58:42.449Z,66.90
2023-11-09T09:01:18.797Z,66.30
2023-11-09T09:03:52.240Z,65.00
2023-11-09T09:06:19.985Z,57.70
2023-11-09T09:08:48.664Z,57.70
2023-11-09T09:11:18.736Z,58.40
2023-11-09T09:13:45.948Z,56.90
2023-11-09T09:16:16.762Z,59.20
2023-11-09T09:18:45.699Z,60.90
2023-11-09T09:21:12.913Z,62.60
2023-11-09T09:23:40.053Z,64.30
2023-11-09T09:26:15.175Z,65.00
2023-11-09T09:28:49.879Z,66.40
2023-11-09T09:31:21.487Z,66.30
2023-11-09T09:34:11.231Z,67.40
2023-11-09T09:36:39.132Z,67.30
2023-11-09T09:39:08.267Z,67.70
2023-11-09T09:41:42.112Z,68.40
2023-11-09T09:44:15.641Z,69.20
2023-11-09T09:46:44.056Z,69.80
2023-11-09T09:49:11.959Z,70.70
2023-11-09T09:51:39.675Z,71.30
2023-11-09T09:54:10.142Z,72.00
2023-11-09T09:56:42.243Z,72.80
2023-11-09T09:59:13.317Z,73.40
2023-11-09T10:01:49.617Z,74.20
2023-11-09T10:04:17.147Z,74.70
2023-11-09T10:06:46.489Z,75.00
2023-11-09T10:09:15.628Z,75.30
2023-11-09T10:11:43.943Z,75.90
2023-11-09T10:14:16.133Z,76.30
2023-11-09T10:16:43.279Z,76.50
2023-11-09T10:19:11.672Z,76.70
2023-11-09T10:21:42.486Z,76.80
2023-11-09T10:24:18.018Z,76.90
2023-11-09T10:26:46.761Z,76.90
2023-11-09T10:29:20.740Z,77.10
2023-11-09T10:31:48.036Z,77.10
2023-11-09T10:34:17.270Z,77.00
2023-11-09T10:36:47.637Z,77.00
2023-11-09T10:39:26.476Z,76.90
2023-11-09T10:41:57.323Z,77.00
2023-11-09T10:44:29.855Z,77.00
2023-11-09T10:47:03.779Z,77.20
2023-11-09T10:49:38.079Z,77.30
2023-11-09T10:52:08.036Z,77.20
2023-11-09T10:54:37.106Z,77.40
2023-11-09T10:57:06.436Z,77.60
2023-11-09T10:59:41.769Z,77.60
2023-11-09T11:02:28.430Z,77.60
2023-11-09T11:05:00.483Z,78.00
2023-11-09T11:07:39.872Z,77.70
2023-11-09T11:10:17.496Z,77.60
2023-11-09T11:12:45.710Z,77.60
2023-11-09T11:15:17.922Z,77.60
2023-11-09T11:18:13.593Z,77.50
2023-11-09T11:21:25.013Z,77.50
2023-11-09T11:24:17.813Z,77.60
2023-11-09T11:27:16.680Z,78.60
2023-11-09T11:29:49.265Z,79.20
2023-11-09T11:32:23.420Z,79.40
2023-11-09T11:34:55.947Z,80.20
2023-11-09T11:37:32.435Z,79.60
2023-11-09T11:40:09.865Z,79.50
2023-11-09T11:42:39.204Z,79.60
2023-11-09T11:45:08.745Z,79.50
2023-11-09T11:47:36.352Z,79.30
2023-11-09T11:50:09.861Z,79.90
2023-11-09T11:52:37.108Z,79.20
2023-11-09T11:55:04.755Z,78.90
2023-11-09T11:57:35.952Z,78.90
2023-11-09T12:00:10.653Z,79.50
2023-11-09T12:02:40.056Z,79.20
2023-11-09T12:05:10.702Z,79.50
2023-11-09T12:07:42.754Z,79.80
2023-11-09T12:10:16.202Z,79.90
2023-11-09T12:12:55.554Z,80.00
2023-11-09T12:15:29.121Z,80.90
2023-11-09T12:17:56.739Z,80.70
2023-11-09T12:20:27.500Z,80.70
2023-11-09T12:22:56.148Z,80.90
2023-11-09T12:25:27.480Z,81.00
2023-11-09T12:27:58.272Z,81.30
2023-11-09T12:30:26.777Z,81.20
2023-11-09T12:32:54.808Z,81.30
2023-11-09T12:35:22.096Z,81.30
2023-11-09T12:38:00.744Z,81.30
2023-11-09T12:40:31.862Z,81.10
2023-11-09T12:43:00.188Z,81.00
2023-11-09T12:45:27.320Z,81.40
2023-11-09T12:47:57.137Z,81.30
2023-11-09T12:50:24.297Z,81.20
2023-11-09T12:52:55.595Z,81.20
2023-11-09T12:55:24.178Z,81.10
2023-11-09T12:57:51.600Z,80.90
2023-11-09T13:00:24.278Z,80.60
2023-11-09T13:02:58.857Z,80.40
2023-11-09T13:05:32.574Z,80.10
2023-11-09T13:08:08.636Z,80.00
2023-11-09T13:10:39.321Z,79.70
2023-11-09T13:13:22.661Z,79.50
2023-11-09T13:15:50.867Z,79.10
2023-11-09T13:18:27.440Z,78.90
2023-11-09T13:20:55.550Z,78.70
2023-11-09T13:23:34.360Z,78.50
2023-11-09T13:26:02.372Z,78.30
2023-11-09T13:28:30.711Z,77.60
2023-11-09T13:31:14.721Z,77.20
2023-11-09T13:33:46.199Z,78.40
2023-11-09T13:36:16.799Z,78.70
2023-11-09T13:38:58.779Z,79.00
2023-11-09T13:41:40.428Z,79.90
2023-11-09T13:44:08.517Z,80.20
2023-11-09T13:46:44.021Z,80.60
2023-11-09T13:49:17.000Z,81.10
2023-11-09T13:51:55.860Z,80.80
2023-11-09T13:54:41.840Z,81.20
2023-11-09T13:57:12.328Z,82.60
2023-11-09T13:59:44.181Z,83.60
2023-11-09T14:02:18.687Z,84.30
2023-11-09T14:04:59.799Z,84.60
2023-11-09T14:07:33.507Z,85.40
2023-11-09T14:10:06.329Z,85.70
2023-11-09T14:12:50.252Z,86.30
2023-11-09T14:15:28.547Z,86.80
2023-11-09T14:18:03.974Z,87.40
2023-11-09T14:20:31.833Z,87.80
2023-11-09T14:23:07.232Z,88.00
2023-11-09T14:25:39.232Z,88.30
2023-11-09T14:28:06.478Z,88.30
2023-11-09T14:30:34.013Z,88.30
2023-11-09T14:33:02.725Z,88.30
2023-11-09T14:35:34.548Z,88.20
2023-11-09T14:38:05.445Z,88.10
2023-11-09T14:40:36.647Z,88.10
2023-11-09T14:43:14.650Z,88.10
2023-11-09T14:45:43.210Z,88.20
2023-11-09T14:48:12.125Z,87.20
2023-11-09T14:50:40.594Z,89.30
2023-11-09T14:53:15.235Z,87.90
2023-11-09T14:55:54.717Z,86.60
2023-11-09T14:58:31.433Z,85.00
2023-11-09T15:01:03.813Z,83.60
2023-11-09T15:03:35.606Z,82.60
2023-11-09T15:06:13.311Z,83.90
2023-11-09T15:08:41.676Z,84.40
2023-11-09T15:11:14.209Z,81.90
2023-11-09T15:13:45.685Z,81.30
2023-11-09T15:16:19.978Z,80.80
2023-11-09T15:18:48.584Z,80.80
2023-11-09T15:21:17.617Z,80.50
2023-11-09T15:23:45.257Z,79.80
2023-11-09T15:26:14.410Z,79.70
2023-11-09T15:28:43.203Z,79.40
2023-11-09T15:31:11.355Z,79.20
2023-11-09T15:33:38.470Z,79.00
2023-11-09T15:36:06.705Z,78.80
2023-11-09T15:38:34.938Z,78.60
2023-11-09T15:41:18.278Z,78.40
2023-11-09T15:43:50.411Z,78.10
2023-11-09T15:46:17.753Z,78.20
2023-11-09T15:48:47.585Z,78.40
2023-11-09T15:51:17.441Z,78.60
2023-11-09T15:53:44.745Z,79.00
2023-11-09T15:56:13.162Z,79.40
2023-11-09T15:58:41.333Z,79.70
2023-11-09T16:01:10.319Z,79.90
2023-11-09T16:03:37.698Z,80.30
2023-11-09T16:06:05.127Z,80.90
2023-11-09T16:08:32.308Z,81.40
2023-11-09T16:11:01.995Z,82.20
2023-11-09T16:13:29.486Z,81.60
2023-11-09T16:15:56.776Z,81.80
2023-11-09T16:18:25.783Z,82.00
2023-11-09T16:20:52.902Z,82.00
2023-11-09T16:23:21.541Z,82.20
2023-11-09T16:25:48.721Z,82.20
2023-11-09T16:28:20.788Z,81.60
2023-11-09T16:30:48.093Z,82.00
2023-11-09T16:33:16.375Z,82.10
2023-11-09T16:35:43.947Z,82.00
2023-11-09T16:38:11.614Z,82.10
2023-11-09T16:40:41.749Z,82.00
2023-11-09T16:43:09.424Z,82.10
2023-11-09T16:45:36.866Z,82.00
2023-11-09T16:48:04.877Z,82.10
2023-11-09T16:50:32.203Z,81.80
2023-11-09T16:52:59.678Z,81.80
2023-11-09T16:55:27.020Z,81.30
2023-11-09T16:57:55.047Z,81.20
2023-11-09T17:00:24.249Z,81.60
2023-11-09T17:02:51.786Z,81.00
2023-11-09T17:05:19.070Z,80.80
2023-11-09T17:07:47.350Z,80.60
2023-11-09T17:10:15.223Z,80.50
2023-11-09T17:12:43.214Z,80.20
2023-11-09T17:15:12.161Z,80.00
2023-11-09T17:17:43.771Z,79.80
2023-11-09T17:20:13.527Z,79.90
2023-11-09T17:22:45.399Z,79.60
2023-11-09T17:25:14.449Z,79.50
2023-11-09T17:27:45.018Z,79.40
2023-11-09T17:30:13.553Z,79.50
2023-11-09T17:32:41.521Z,79.40
2023-11-09T17:35:09.868Z,79.50
2023-11-09T17:37:38.511Z,79.80
2023-11-09T17:40:11.714Z,79.90
2023-11-09T17:42:39.574Z,80.20
2023-11-09T17:45:08.009Z,80.20
2023-11-09T17:47:35.311Z,80.00
2023-11-09T17:50:02.556Z,80.50
2023-11-09T17:52:29.758Z,80.40
2023-11-09T17:54:56.927Z,80.90
2023-11-09T17:57:25.558Z,81.00
2023-11-09T17:59:52.739Z,81.40
2023-11-09T18:02:19.932Z,80.40
2023-11-09T18:04:47.190Z,80.30
2023-11-09T18:07:15.844Z,80.20
2023-11-09T18:09:44.667Z,80.70
2023-11-09T18:12:11.919Z,80.50
2023-11-09T18:14:44.559Z,80.50
2023-11-09T18:17:16.287Z,80.40
2023-11-09T18:19:43.477Z,80.10
2023-11-09T18:22:10.598Z,80.00
2023-11-09T18:24:38.339Z,78.90
2023-11-09T18:27:06.017Z,79.10
2023-11-09T18:29:34.814Z,79.50
2023-11-09T18:32:04.342Z,79.30
2023-11-09T18:34:31.994Z,79.60
2023-11-09T18:36:59.308Z,79.10
2023-11-09T18:39:27.650Z,79.00
2023-11-09T18:41:55.893Z,78.80
2023-11-09T18:44:23.146Z,78.70
2023-11-09T18:46:50.842Z,78.40
2023-11-09T18:51:49.026Z,77.80
2023-11-09T18:54:16.184Z,77.60
2023-11-09T18:56:43.738Z,78.00
2023-11-09T18:59:11.035Z,77.00
2023-11-09T19:01:40.056Z,76.70
2023-11-09T19:06:37.980Z,76.10
2023-11-09T19:09:06.947Z,75.80
2023-11-09T19:11:34.374Z,75.60
2023-11-09T19:14:01.747Z,75.30
2023-11-09T19:16:29.022Z,75.60
2023-11-09T19:18:56.229Z,75.80
2023-11-09T19:23:53.378Z,76.10
2023-11-09T19:26:20.717Z,75.90
2023-11-09T19:28:47.811Z,75.90
2023-11-09T19:31:15.046Z,75.90
2023-11-09T19:33:43.024Z,76.00
2023-11-09T19:36:10.175Z,76.00
2023-11-09T19:38:37.443Z,76.10
2023-11-09T19:41:04.875Z,76.30
2023-11-09T19:43:31.967Z,76.10
2023-11-09T19:45:59.155Z,76.10
2023-11-09T19:48:27.344Z,76.10
2023-11-09T19:50:55.400Z,76.30
2023-11-09T19:53:22.497Z,76.60
2023-11-09T19:55:49.623Z,76.70
2023-11-09T19:58:16.819Z,76.70
2023-11-09T20:00:45.267Z,76.80
2023-11-09T20:03:12.957Z,76.80
2023-11-09T20:05:41.484Z,76.70
2023-11-09T20:08:08.562Z,76.70
2023-11-09T20:10:35.770Z,76.60
2023-11-09T20:13:04.599Z,76.50
2023-11-09T20:15:32.454Z,76.30
2023-11-09T20:18:01.490Z,76.10
2023-11-09T20:20:32.594Z,76.10
2023-11-09T20:22:59.733Z,75.90
2023-11-09T20:25:27.110Z,75.80
2023-11-09T20:27:58.787Z,75.80
2023-11-09T20:30:26.750Z,76.30
2023-11-09T20:32:54.222Z,76.20
2023-11-09T20:35:21.337Z,76.00
2023-11-09T20:37:48.405Z,75.80
2023-11-09T20:40:17.364Z,75.50
2023-11-09T20:42:46.532Z,75.80
2023-11-09T20:45:14.310Z,75.90
2023-11-09T20:47:42.484Z,76.10
2023-11-09T20:50:15.988Z,76.20
2023-11-09T20:52:48.464Z,76.30
2023-11-09T20:55:20.089Z,76.30
2023-11-09T20:57:49.239Z,76.20
2023-11-09T21:00:17.567Z,76.40
2023-11-09T21:02:45.065Z,76.50
2023-11-09T21:05:12.914Z,76.60
2023-11-09T21:07:40.226Z,76.60
2023-11-09T21:10:08.488Z,76.60
2023-11-09T21:12:35.651Z,77.10
2023-11-09T21:15:05.968Z,77.00
2023-11-09T21:17:36.654Z,76.90
2023-11-09T21:20:06.616Z,78.40
2023-11-09T21:22:33.761Z,78.30
2023-11-09T21:25:01.779Z,78.50
2023-11-09T21:27:29.273Z,78.50
2023-11-09T21:29:56.378Z,78.60
2023-11-09T21:32:23.456Z,78.90
2023-11-09T21:34:50.615Z,79.40
2023-11-09T21:37:19.727Z,79.70
2023-11-09T21:39:46.854Z,79.70
2023-11-09T21:42:13.961Z,79.90
2023-11-09T21:44:46.197Z,80.50
2023-11-09T21:47:13.300Z,79.70
2023-11-09T21:49:45.350Z,79.50
2023-11-09T21:52:12.957Z,79.40
2023-11-09T21:54:42.462Z,79.30
2023-11-09T21:57:10.731Z,79.10
2023-11-09T21:59:37.843Z,79.10
2023-11-09T22:02:04.977Z,79.20
2023-11-09T22:04:33.640Z,79.20
2023-11-09T22:07:01.568Z,79.10
2023-11-09T22:09:28.764Z,79.00
2023-11-09T22:11:56.195Z,78.90
2023-11-09T22:14:23.549Z,78.90
2023-11-09T22:16:50.627Z,79.70
2023-11-09T22:19:17.723Z,80.30
2023-11-09T22:21:45.850Z,80.40
2023-11-09T22:24:14.648Z,80.90
2023-11-09T22:26:41.986Z,80.90
2023-11-09T22:29:09.133Z,81.10
2023-11-09T22:31:36.309Z,81.20
2023-11-09T22:34:04.871Z,81.20
2023-11-09T22:36:32.140Z,81.30
2023-11-09T22:38:59.256Z,81.30
2023-11-09T22:41:26.315Z,81.30
2023-11-09T22:43:53.376Z,81.20
2023-11-09T22:46:20.913Z,81.10
2023-11-09T22:48:48.052Z,81.10
2023-11-09T22:51:17.603Z,81.00
2023-11-09T22:53:44.893Z,81.00
2023-11-09T22:56:13.726Z,80.90
2023-11-09T22:58:40.807Z,80.70
2023-11-09T23:01:07.866Z,81.10
2023-11-09T23:03:35.081Z,81.30
2023-11-09T23:06:02.360Z,81.30
2023-11-09T23:08:31.761Z,81.70
2023-11-09T23:10:59.860Z,81.20
2023-11-09T23:13:29.248Z,81.90
2023-11-09T23:15:56.355Z,81.50
2023-11-09T23:18:23.556Z,81.80
2023-11-09T23:20:50.704Z,81.90
2023-11-09T23:23:18.237Z,81.70
2023-11-09T23:25:46.144Z,81.70
2023-11-09T23:28:13.538Z,81.60
2023-11-09T23:30:42.884Z,81.40
2023-11-09T23:33:10.188Z,81.90
2023-11-09T23:35:37.339Z,81.30
2023-11-09T23:38:04.535Z,81.40
2023-11-09T23:40:31.603Z,81.30
2023-11-09T23:42:58.675Z,81.20
2023-11-09T23:45:27.490Z,81.20
2023-11-09T23:47:54.678Z,81.10
2023-11-09T23:50:21.890Z,81.10
2023-11-09T23:52:48.945Z,81.10
2023-11-09T23:55:17.235Z,81.00
2023-11-09T23:57:46.274Z,80.80
